Time;durP1;ratioP1;P1;durP2;ratioP2;P2;SDS_P1;SDS_P2;PMS_P1;PMS_P2;Temp;Humidity;BMP_temperature;BMP_pressure;BME280_temperature;BME280_humidity;BME280_pressure;Samples;Min_cycle;Max_cycle;Signal;HPM_P1;HPM_P2
2022/05/06 00:01:54;;;;;;;4.22;3.10;;;16.80;57.40;;;;;;5074978;28;20410;-70
2022/05/06 00:04:20;;;;;;;4.18;3.00;;;17.00;57.20;;;;;;5073308;28;20131;-70
2022/05/06 00:06:48;;;;;;;4.00;3.33;;;16.90;57.30;;;;;;5074606;28;20059;-70
2022/05/06 00:09:15;;;;;;;4.05;2.83;;;16.00;56.90;;;;;;5073238;28;20056;-70
2022/05/06 00:11:42;;;;;;;3.55;2.78;;;16.20;56.80;;;;;;5072120;28;20052;-70
2022/05/06 00:14:10;;;;;;;3.60;2.90;;;16.90;54.00;;;;;;5073206;28;20154;-70
2022/05/06 00:16:37;;;;;;;5.13;3.00;;;;;;;;;;5074248;28;20091;-70
2022/05/06 00:19:04;;;;;;;3.65;2.97;;;17.60;57.80;;;;;;5072946;28;20496;-70
2022/05/06 00:21:30;;;;;;;3.67;3.22;;;16.90;52.10;;;;;;5074592;28;20067;-70
2022/05/06 00:23:58;;;;;;;3.33;2.85;;;16.90;51.90;;;;;;5074045;28;20051;-70
2022/05/06 00:26:25;;;;;;;4.25;3.47;;;17.00;57.40;;;;;;5072795;28;20511;-70
2022/05/06 00:28:52;;;;;;;3.50;2.97;;;17.10;57.40;;;;;;5073163;28;20059;-70
2022/05/06 00:31:18;;;;;;;3.42;2.95;;;17.00;57.40;;;;;;5073736;28;20573;-70
2022/05/06 00:33:46;;;;;;;3.92;3.08;;;16.50;56.90;;;;;;5072471;28;20131;-70
2022/05/06 00:36:14;;;;;;;4.07;2.90;;;17.00;57.60;;;;;;5072726;28;20432;-70
2022/05/06 00:38:42;;;;;;;3.55;3.00;;;16.80;57.40;;;;;;5072971;28;20485;-70
2022/05/06 00:41:10;;;;;;;4.07;3.00;;;17.60;57.90;;;;;;5078849;28;20472;-70
2022/05/06 00:43:39;;;;;;;3.58;2.75;;;16.90;57.70;;;;;;5092552;28;20048;-70
2022/05/06 00:46:06;;;;;;;4.38;3.10;;;16.90;51.90;;;;;;5092762;28;20139;-70
2022/05/06 00:48:32;;;;;;;4.65;3.30;;;17.50;57.70;;;;;;5093514;28;20048;-70
2022/05/06 00:51:00;;;;;;;4.93;3.00;;;17.00;57.40;;;;;;5087056;28;20184;-70
2022/05/06 00:53:26;;;;;;;3.90;2.88;;;16.90;57.50;;;;;;5072375;28;20087;-70
2022/05/06 00:55:55;;;;;;;3.10;2.70;;;16.40;57.10;;;;;;5073342;28;20059;-70
2022/05/06 00:58:24;;;;;;;4.05;3.28;;;16.90;57.60;;;;;;5073539;28;20053;-70
2022/05/06 01:00:50;;;;;;;3.10;2.80;;;16.90;57.20;;;;;;5071905;28;20045;-70
2022/05/06 01:03:17;;;;;;;5.32;2.90;;;15.90;57.10;;;;;;5073626;28;20048;-70
2022/05/06 01:05:44;;;;;;;3.58;2.78;;;;;;;;;;5072250;28;20052;-70
2022/05/06 01:08:11;;;;;;;3.35;2.65;;;16.90;57.60;;;;;;5071887;28;20048;-70
2022/05/06 01:10:38;;;;;;;4.15;3.08;;;17.60;57.90;;;;;;5073185;28;20658;-70
2022/05/06 01:13:44;;;;;;;3.83;2.92;;;16.90;57.70;;;;;;5093414;28;20131;-70
2022/05/06 01:16:12;;;;;;;4.10;2.80;;;16.90;57.70;;;;;;5092229;28;20055;-70
2022/05/06 01:18:39;;;;;;;3.35;2.83;;;16.30;57.20;;;;;;5093087;28;20447;-70
2022/05/06 01:21:06;;;;;;;3.80;3.15;;;16.90;57.70;;;;;;5092045;28;20688;-70
2022/05/06 01:23:35;;;;;;;3.60;2.90;;;16.90;57.60;;;;;;5092726;28;20066;-70
2022/05/06 01:26:01;;;;;;;4.15;3.00;;;16.80;57.40;;;;;;5093011;28;20051;-70
2022/05/06 01:28:28;;;;;;;3.40;2.80;;;17.20;57.90;;;;;;5091843;28;20052;-70
2022/05/06 01:31:00;;;;;;;3.00;2.50;;;15.80;57.10;;;;;;5092345;28;20048;-70
2022/05/06 01:33:28;;;;;;;3.42;2.90;;;16.60;57.50;;;;;;5124908;27;20063;-70
2022/05/06 01:35:56;;;;;;;3.70;2.90;;;16.70;57.50;;;;;;5071446;28;20056;-70
2022/05/06 01:38:25;;;;;;;5.38;2.90;;;16.70;53.50;;;;;;5071079;28;20053;-70
2022/05/06 01:40:54;;;;;;;4.30;3.00;;;16.80;57.70;;;;;;5074507;28;20047;-70
2022/05/06 01:43:21;;;;;;;3.92;2.70;;;16.80;57.60;;;;;;5092785;28;20635;-70
2022/05/06 01:45:49;;;;;;;3.42;2.90;;;16.70;57.50;;;;;;5092810;28;20044;-70
2022/05/06 01:48:16;;;;;;;3.05;2.75;;;16.50;57.50;;;;;;5091324;28;20406;-71
2022/05/06 01:50:43;;;;;;;2.95;2.63;;;;;;;;;;5092003;28;20059;-70
2022/05/06 01:53:14;;;;;;;3.45;2.70;;;16.50;57.60;;;;;;5091211;28;20052;-70
2022/05/06 01:55:40;;;;;;;3.20;2.80;;;16.70;57.50;;;;;;5091520;28;20068;-70
2022/05/06 01:58:09;;;;;;;3.03;2.58;;;16.60;57.40;;;;;;5091337;28;20493;-70
2022/05/06 02:00:36;;;;;;;3.78;3.10;;;16.50;57.50;;;;;;5091747;28;20059;-70
2022/05/06 02:03:02;;;;;;;4.50;2.88;;;16.80;57.70;;;;;;5070998;28;20087;-70
2022/05/06 02:05:28;;;;;;;3.60;2.88;;;16.60;57.60;;;;;;5071199;28;20063;-70
2022/05/06 02:07:55;;;;;;;4.22;3.58;;;16.80;57.60;;;;;;5072300;28;20040;-70
2022/05/06 02:10:23;;;;;;;6.05;3.80;;;16.70;57.40;;;;;;5070460;28;20052;-70
2022/05/06 02:12:49;;;;;;;3.83;3.00;;;16.60;57.50;;;;;;5089347;28;20054;-70
2022/05/06 02:15:18;;;;;;;3.75;2.92;;;16.60;57.30;;;;;;5091247;28;20091;-69
2022/05/06 02:17:45;;;;;;;4.38;3.47;;;17.10;57.90;;;;;;5090975;28;20062;-70
2022/05/06 02:20:13;;;;;;;3.40;2.72;;;16.70;57.90;;;;;;5090793;28;20056;-70
2022/05/06 02:22:42;;;;;;;4.45;3.63;;;16.70;57.60;;;;;;5073685;28;20056;-69
2022/05/06 02:25:09;;;;;;;3.70;3.08;;;16.90;57.50;;;;;;5070387;28;20097;-69
2022/05/06 02:27:36;;;;;;;3.60;3.20;;;17.20;58.00;;;;;;5070501;28;20052;-70
2022/05/06 02:35:33;;;;;;;4.40;3.08;;;16.70;57.60;;;;;;5124719;27;20060;-70
2022/05/06 02:38:00;;;;;;;4.03;2.97;;;17.30;57.60;;;;;;5091753;28;20127;-69
2022/05/06 02:40:27;;;;;;;4.47;3.30;;;16.80;56.10;;;;;;5090348;28;20048;-70
2022/05/06 02:42:54;;;;;;;4.25;3.08;;;16.60;57.20;;;;;;5072161;28;20568;-69
2022/05/06 02:45:22;;;;;;;4.07;3.25;;;;;;;;;;5071692;28;20049;-70
2022/05/06 02:47:50;;;;;;;3.70;3.05;;;16.70;57.60;;;;;;5070341;28;20110;-70
2022/05/06 02:50:17;;;;;;;5.22;3.60;;;16.60;57.20;;;;;;5071417;28;20436;-70
2022/05/06 02:52:43;;;;;;;3.45;3.10;;;16.50;57.20;;;;;;5088349;28;20050;-70
2022/05/06 02:55:10;;;;;;;4.72;3.15;;;16.40;57.40;;;;;;5090910;28;20067;-69
2022/05/06 02:57:37;;;;;;;4.28;3.03;;;16.50;57.60;;;;;;5090526;28;20105;-70
2022/05/06 03:00:05;;;;;;;3.85;3.10;;;15.90;57.20;;;;;;5090778;28;20056;-70
2022/05/06 03:02:32;;;;;;;4.13;3.22;;;;;;;;;;5108716;28;20052;-70
2022/05/06 03:05:00;;;;;;;4.03;3.22;;;15.80;56.80;;;;;;5071450;28;20049;-70
2022/05/06 03:07:27;;;;;;;4.25;3.10;;;16.10;57.00;;;;;;5071478;28;20055;-70
2022/05/06 03:09:53;;;;;;;5.15;3.22;;;16.60;57.50;;;;;;5071325;28;20507;-69
2022/05/06 03:12:22;;;;;;;4.40;3.30;;;16.80;57.60;;;;;;5070471;28;20057;-70
2022/05/06 03:14:49;;;;;;;3.38;2.63;;;16.70;57.30;;;;;;5071415;28;20123;-70
2022/05/06 03:17:15;;;;;;;4.05;2.90;;;16.60;57.30;;;;;;5071339;28;20055;-70
2022/05/06 03:19:42;;;;;;;3.45;2.80;;;16.10;57.20;;;;;;5071156;28;20127;-70
2022/05/06 03:22:10;;;;;;;3.35;2.80;;;17.30;57.80;;;;;;5082343;28;20390;-69
2022/05/06 03:24:37;;;;;;;3.50;2.85;;;16.50;57.20;;;;;;5090309;28;20052;-70
2022/05/06 03:27:04;;;;;;;3.83;2.85;;;16.30;57.10;;;;;;5091303;28;20040;-70
2022/05/06 03:29:31;;;;;;;3.72;3.08;;;16.90;57.60;;;;;;5091314;28;20054;-70
2022/05/06 03:31:58;;;;;;;4.32;2.80;;;;;;;;;;5090896;28;20051;-70
2022/05/06 03:34:25;;;;;;;3.35;2.65;;;16.70;57.30;;;;;;5090289;28;20079;-70
2022/05/06 03:36:51;;;;;;;3.38;2.72;;;16.10;57.10;;;;;;5090279;28;20056;-69
2022/05/06 03:39:19;;;;;;;3.05;2.30;;;17.30;57.90;;;;;;5091376;28;20047;-70
2022/05/06 03:41:46;;;;;;;3.70;2.90;;;16.70;57.50;;;;;;5090518;28;20405;-70
2022/05/06 03:44:13;;;;;;;3.00;2.55;;;16.90;57.30;;;;;;5091476;28;20044;-69
2022/05/06 03:46:39;;;;;;;2.80;2.50;;;16.60;57.50;;;;;;5091312;28;20040;-70
2022/05/06 03:49:06;;;;;;;3.25;2.50;;;16.10;57.10;;;;;;5093719;28;20071;-70
2022/05/06 03:51:32;;;;;;;2.97;2.65;;;16.70;57.20;;;;;;5089218;28;20404;-69
2022/05/06 03:53:58;;;;;;;3.42;2.72;;;16.60;57.50;;;;;;5073635;28;20127;-69
2022/05/06 03:56:27;;;;;;;3.08;2.58;;;16.40;57.20;;;;;;5074520;28;20405;-69
2022/05/06 03:58:54;;;;;;;3.38;2.65;;;17.30;57.50;;;;;;5073471;28;20064;-70
2022/05/06 04:01:21;;;;;;;2.97;2.60;;;;;;;;;;5076208;28;20051;-70
2022/05/06 04:03:48;;;;;;;3.35;2.50;;;16.90;57.80;;;;;;5093733;28;20048;-69
2022/05/06 04:06:15;;;;;;;3.80;3.13;;;16.70;57.30;;;;;;5094841;28;20047;-69
2022/05/06 04:08:42;;;;;;;2.72;2.50;;;16.50;57.20;;;;;;5094571;28;20135;-69
2022/05/06 04:11:09;;;;;;;4.57;2.95;;;16.70;57.30;;;;;;5090906;28;20470;-70
2022/05/06 04:13:37;;;;;;;3.70;2.78;;;16.80;57.10;;;;;;5073310;28;20063;-69
2022/05/06 04:16:04;;;;;;;3.55;2.63;;;16.80;57.20;;;;;;5073379;28;20075;-69
2022/05/06 04:18:31;;;;;;;3.78;3.28;;;15.90;56.90;;;;;;5072999;28;20056;-70
2022/05/06 04:23:42;;;;;;;3.17;2.88;;;16.80;57.10;;;;;;5092968;28;20487;-69
2022/05/06 04:26:10;;;;;;;2.78;2.47;;;16.70;57.40;;;;;;5094424;28;20044;-69
2022/05/06 04:28:38;;;;;;;3.70;2.67;;;16.00;57.00;;;;;;5093269;28;20407;-69
2022/05/06 04:31:05;;;;;;;3.47;2.70;;;17.60;57.80;;;;;;5093757;28;20090;-70
2022/05/06 04:33:31;;;;;;;3.15;2.45;;;16.80;53.20;;;;;;5126746;27;20052;-70
2022/05/06 04:36:00;;;;;;;3.90;2.97;;;16.00;56.70;;;;;;5093001;28;20056;-69
2022/05/06 04:38:26;;;;;;;3.03;2.50;;;15.80;56.70;;;;;;5092644;28;20051;-69
2022/05/06 04:40:54;;;;;;;3.55;2.50;;;16.80;51.00;;;;;;5092646;28;20059;-69
2022/05/06 04:43:21;;;;;;;4.00;2.90;;;16.80;57.10;;;;;;5074649;28;20062;-70
2022/05/06 04:45:50;;;;;;;3.20;2.72;;;16.70;56.90;;;;;;5080678;28;20063;-70
2022/05/06 04:48:17;;;;;;;3.30;2.75;;;15.80;56.60;;;;;;5093849;28;20052;-70
2022/05/06 04:50:45;;;;;;;4.15;2.78;;;17.00;57.30;;;;;;5092233;28;20080;-70
2022/05/06 04:53:12;;;;;;;3.88;2.70;;;16.80;56.70;;;;;;5076962;28;20122;-70
2022/05/06 04:55:40;;;;;;;3.45;2.60;;;16.80;56.80;;;;;;5072200;28;20044;-70
2022/05/06 04:58:06;;;;;;;3.40;2.80;;;16.80;56.70;;;;;;5072174;28;20056;-70
2022/05/06 05:00:33;;;;;;;3.63;2.97;;;17.00;56.80;;;;;;5071962;28;20056;-69
2022/05/06 05:03:01;;;;;;;3.15;2.80;;;17.00;56.90;;;;;;5075378;28;20049;-69
2022/05/06 05:05:29;;;;;;;3.13;2.55;;;16.90;56.90;;;;;;5073489;28;20048;-69
2022/05/06 05:07:55;;;;;;;3.00;2.60;;;16.90;56.90;;;;;;5088509;28;20058;-70
2022/05/06 05:10:22;;;;;;;3.03;2.65;;;16.80;56.60;;;;;;5071966;28;20063;-69
2022/05/06 05:12:49;;;;;;;2.95;2.58;;;16.90;57.00;;;;;;5084914;28;20043;-70
2022/05/06 05:15:16;;;;;;;3.45;2.83;;;16.70;57.00;;;;;;5093312;28;20052;-69
2022/05/06 05:17:43;;;;;;;4.05;2.63;;;16.80;56.30;;;;;;5086023;28;20052;-69
2022/05/06 05:20:12;;;;;;;3.78;2.70;;;16.00;56.30;;;;;;5071628;28;20059;-69
2022/05/06 05:22:39;;;;;;;3.78;2.67;;;16.80;56.80;;;;;;5082547;28;20058;-69
2022/05/06 05:25:06;;;;;;;3.45;2.75;;;16.40;56.60;;;;;;5091580;28;20051;-69
2022/05/06 05:27:33;;;;;;;3.45;2.60;;;16.30;56.80;;;;;;5093368;28;20056;-70
2022/05/06 05:30:01;;;;;;;3.25;2.83;;;16.90;56.90;;;;;;5091727;28;20051;-69
2022/05/06 05:32:27;;;;;;;3.38;2.42;;;16.80;57.10;;;;;;5082267;28;20413;-70
2022/05/06 05:34:54;;;;;;;2.85;2.40;;;17.10;56.90;;;;;;5071682;28;20481;-69
2022/05/06 05:37:22;;;;;;;3.13;2.65;;;16.80;50.90;;;;;;5071012;28;20056;-69
2022/05/06 05:39:49;;;;;;;3.35;2.63;;;17.50;57.60;;;;;;5072900;28;20056;-69
2022/05/06 05:42:20;;;;;;;3.85;2.90;;;17.00;56.90;;;;;;5078404;28;20050;-69
2022/05/06 05:50:16;;;;;;;3.17;2.50;;;16.70;57.40;;;;;;5125245;27;20048;-69
2022/05/06 05:52:44;;;;;;;3.22;2.70;;;16.30;56.50;;;;;;5081477;28;20048;-69
2022/05/06 05:55:11;;;;;;;3.15;2.78;;;16.90;56.90;;;;;;5072297;28;20441;-70
2022/05/06 05:57:38;;;;;;;3.70;2.83;;;16.10;56.40;;;;;;5070919;28;20072;-69
2022/05/06 06:00:06;;;;;;;3.72;2.83;;;17.10;57.00;;;;;;5070981;28;20063;-71
2022/05/06 06:02:33;;;;;;;4.18;3.03;;;;;;;;;;5080176;28;20044;-71
2022/05/06 06:05:00;;;;;;;4.18;3.30;;;;;;;;;;5092488;28;20044;-71
2022/05/06 06:07:27;;;;;;;3.20;2.65;;;16.90;57.00;;;;;;5091444;28;20056;-71
2022/05/06 06:09:55;;;;;;;3.60;2.85;;;16.40;56.70;;;;;;5124668;27;20643;-71
2022/05/06 06:12:21;;;;;;;4.38;2.92;;;16.80;56.90;;;;;;5083755;28;20044;-71
2022/05/06 06:14:48;;;;;;;3.83;2.90;;;16.00;57.80;;;;;;5070852;28;20048;-71
2022/05/06 06:17:15;;;;;;;3.10;2.60;;;17.00;57.00;;;;;;5072077;28;20047;-71
2022/05/06 06:19:41;;;;;;;3.35;2.90;;;16.80;56.50;;;;;;5070957;28;20078;-71
2022/05/06 06:22:08;;;;;;;3.92;3.00;;;;;;;;;;5076654;28;20044;-70
2022/05/06 06:24:35;;;;;;;4.72;3.20;;;16.90;56.60;;;;;;5091939;28;20100;-71
2022/05/06 06:27:03;;;;;;;4.00;3.10;;;17.00;56.80;;;;;;5092421;28;20600;-71
2022/05/06 06:29:35;;;;;;;3.60;2.83;;;16.00;56.40;;;;;;5090908;28;20056;-70
2022/05/06 06:32:02;;;;;;;3.53;2.83;;;17.10;56.80;;;;;;5088025;28;20059;-71
2022/05/06 06:34:28;;;;;;;3.33;2.80;;;17.30;57.10;;;;;;5070836;28;20079;-71
2022/05/06 06:36:55;;;;;;;3.20;2.90;;;17.30;57.10;;;;;;5071527;28;20045;-71
2022/05/06 06:39:23;;;;;;;3.88;3.08;;;17.00;56.90;;;;;;5073956;28;20130;-72
2022/05/06 06:41:50;;;;;;;3.60;2.90;;;17.30;56.70;;;;;;5091900;28;20052;-71
2022/05/06 06:44:18;;;;;;;3.65;2.92;;;17.70;56.50;;;;;;5090827;28;20481;-69
2022/05/06 06:46:45;;;;;;;3.40;2.83;;;;;;;;;;5089837;28;20050;-69
2022/05/06 06:49:11;;;;;;;3.63;2.78;;;17.80;56.50;;;;;;5086834;28;20062;-70
2022/05/06 06:51:38;;;;;;;3.40;2.80;;;18.00;56.10;;;;;;5091338;28;20044;-70
2022/05/06 06:54:05;;;;;;;3.78;2.85;;;18.10;56.40;;;;;;5090441;28;20048;-69
2022/05/06 06:56:32;;;;;;;3.72;2.75;;;17.90;55.60;;;;;;5090263;28;20060;-70
2022/05/06 06:58:59;;;;;;;3.03;2.50;;;18.10;55.50;;;;;;5087827;28;20044;-70
2022/05/06 07:01:27;;;;;;;3.60;2.90;;;18.40;56.00;;;;;;5089586;28;20132;-69
2022/05/06 07:03:53;;;;;;;3.60;2.90;;;18.20;55.60;;;;;;5124454;28;20113;-70
2022/05/06 07:11:55;;;;;;;3.75;2.72;;;18.30;55.20;;;;;;5113492;28;20044;-70
2022/05/06 07:14:23;;;;;;;3.40;2.80;;;18.70;55.30;;;;;;5071998;28;20064;-70
2022/05/06 07:16:51;;;;;;;3.72;2.95;;;18.40;55.40;;;;;;5075180;28;20075;-70
2022/05/06 07:19:18;;;;;;;5.40;3.00;;;18.90;51.80;;;;;;5124710;28;20059;-70
2022/05/06 07:21:45;;;;;;;4.13;2.95;;;19.10;54.60;;;;;;5122334;27;20043;-69
2022/05/06 07:24:11;;;;;;;3.53;2.97;;;18.90;49.20;;;;;;5130410;27;20059;-70
2022/05/06 07:26:38;;;;;;;3.80;3.15;;;19.60;55.10;;;;;;5102474;28;20488;-70
2022/05/06 07:29:05;;;;;;;4.00;2.92;;;19.10;54.30;;;;;;5105859;28;20048;-70
2022/05/06 07:31:32;;;;;;;4.03;2.60;;;18.30;54.30;;;;;;5112535;28;20054;-70
2022/05/06 07:34:00;;;;;;;3.20;2.72;;;19.30;54.30;;;;;;5115893;28;20412;-71
2022/05/06 07:36:26;;;;;;;3.88;2.83;;;20.10;54.50;;;;;;5106814;28;20064;-71
2022/05/06 07:38:53;;;;;;;4.03;2.50;;;19.40;55.40;;;;;;5095802;28;20136;-71
2022/05/06 07:41:20;;;;;;;4.07;2.80;;;19.60;54.00;;;;;;5094155;28;20311;-71
2022/05/06 07:43:47;;;;;;;5.22;2.63;;;19.60;54.50;;;;;;5093158;28;20047;-70
2022/05/06 07:46:13;;;;;;;4.45;2.70;;;19.60;55.60;;;;;;5095568;28;20510;-71
2022/05/06 07:48:40;;;;;;;3.05;2.35;;;19.60;48.80;;;;;;5102758;28;20053;-70
2022/05/06 07:51:08;;;;;;;3.83;2.67;;;20.00;54.00;;;;;;5096688;28;20412;-69
2022/05/06 07:53:35;;;;;;;2.60;2.40;;;19.60;52.40;;;;;;5095400;28;20131;-69
2022/05/06 07:56:02;;;;;;;4.63;2.67;;;20.10;53.60;;;;;;5094253;28;20052;-70
2022/05/06 07:58:30;;;;;;;2.67;2.17;;;20.10;53.80;;;;;;5094535;28;20483;-71
2022/05/06 08:00:56;;;;;;;4.10;2.13;;;20.90;54.30;;;;;;5094012;28;20052;-68
2022/05/06 08:06:08;;;;;;;3.20;2.47;;;20.30;54.70;;;;;;5123411;27;20127;-69
2022/05/06 08:08:35;;;;;;;3.03;2.30;;;19.80;52.70;;;;;;5073547;28;20044;-69
2022/05/06 08:11:02;;;;;;;3.13;2.30;;;19.90;54.70;;;;;;5073535;28;20060;-69
2022/05/06 08:13:29;;;;;;;3.58;2.42;;;;;;;;;;5082180;28;20044;-70
2022/05/06 08:15:57;;;;;;;3.20;2.30;;;20.40;53.20;;;;;;5091977;28;20058;-70
2022/05/06 08:18:24;;;;;;;3.92;2.38;;;20.50;49.10;;;;;;5107582;28;20514;-69
2022/05/06 08:20:51;;;;;;;4.60;2.30;;;20.50;55.50;;;;;;5103139;28;20404;-69
2022/05/06 08:23:21;;;;;;;2.88;2.10;;;20.80;55.10;;;;;;5102293;28;20051;-69
2022/05/06 08:25:47;;;;;;;3.60;2.28;;;20.70;48.40;;;;;;5124049;27;20451;-70
2022/05/06 08:28:15;;;;;;;3.75;2.40;;;20.70;52.90;;;;;;5110320;28;20050;-69
2022/05/06 08:30:42;;;;;;;5.28;2.33;;;20.70;48.40;;;;;;5080248;28;20049;-69
2022/05/06 08:33:09;;;;;;;3.47;2.30;;;20.80;54.90;;;;;;5073422;28;20049;-69
2022/05/06 08:35:35;;;;;;;2.95;2.25;;;20.80;48.40;;;;;;5074212;28;20485;-71
2022/05/06 08:38:02;;;;;;;3.38;2.33;;;20.00;52.70;;;;;;5092450;28;20056;-70
2022/05/06 08:40:31;;;;;;;3.45;2.28;;;21.80;54.90;;;;;;5092599;28;20048;-70
2022/05/06 08:42:58;;;;;;;3.75;2.38;;;20.90;48.50;;;;;;5094216;28;20058;-70
2022/05/06 08:50:54;;;;;;;3.08;2.20;;;21.50;53.90;;;;;;5072810;28;20052;-70
2022/05/06 08:53:22;;;;;;;3.47;2.28;;;21.00;48.50;;;;;;5072267;28;20132;-70
2022/05/06 08:55:56;;;;;;;2.53;2.22;;;21.00;48.50;;;;;;5072582;28;20524;-69
2022/05/06 08:58:23;;;;;;;2.88;2.03;;;21.00;48.80;;;;;;5055711;28;20125;-69
2022/05/06 09:00:50;;;;;;;2.85;2.15;;;21.10;48.60;;;;;;5085325;28;20048;-70
2022/05/06 09:03:17;;;;;;;4.30;2.50;;;22.40;56.20;;;;;;5094016;28;20040;-69
2022/05/06 09:05:51;;;;;;;5.70;2.70;;;21.00;55.10;;;;;;5092372;28;20054;-70
2022/05/06 09:08:18;;;;;;;3.63;2.77;;;21.20;53.40;;;;;;5073575;28;20044;-70
2022/05/06 09:10:45;;;;;;;4.82;2.85;;;21.00;48.40;;;;;;5073057;28;20053;-70
2022/05/06 09:13:13;;;;;;;4.40;2.70;;;20.90;54.50;;;;;;5106328;28;20048;-70
2022/05/06 09:18:24;;;;;;;5.93;2.72;;;21.00;48.50;;;;;;5092363;28;20048;-70
2022/05/06 09:20:51;;;;;;;3.85;2.47;;;21.00;52.90;;;;;;5092193;28;20056;-70
2022/05/06 09:23:24;;;;;;;4.85;2.33;;;21.80;54.60;;;;;;5092097;28;20048;-70
2022/05/06 09:25:51;;;;;;;3.80;2.85;;;20.80;53.40;;;;;;5093006;28;20724;-69
2022/05/06 09:28:24;;;;;;;2.85;2.28;;;21.10;54.50;;;;;;5093014;28;20511;-69
2022/05/06 09:31:00;;;;;;;3.63;2.45;;;21.00;53.30;;;;;;5091934;28;20481;-70
2022/05/06 09:33:28;;;;;;;4.63;2.42;;;20.90;48.60;;;;;;5093133;28;20054;-70
2022/05/06 09:35:55;;;;;;;2.97;2.20;;;20.90;48.60;;;;;;5092204;28;20105;-69
2022/05/06 09:38:24;;;;;;;2.63;2.17;;;20.90;48.60;;;;;;5071620;28;20058;-70
2022/05/06 09:40:52;;;;;;;2.50;2.25;;;20.90;48.70;;;;;;5071678;28;20079;-69
2022/05/06 09:43:19;;;;;;;2.97;2.25;;;20.90;54.40;;;;;;5071590;28;20059;-69
2022/05/06 09:45:47;;;;;;;3.85;2.20;;;20.90;53.10;;;;;;5071236;28;20053;-69
2022/05/06 09:48:14;;;;;;;3.05;2.15;;;20.90;48.70;;;;;;5072595;28;20091;-69
2022/05/06 09:50:42;;;;;;;2.88;2.35;;;20.90;48.20;;;;;;5072465;28;20055;-69
2022/05/06 09:53:10;;;;;;;2.72;2.40;;;20.90;54.90;;;;;;5071475;28;20058;-69
2022/05/06 09:55:38;;;;;;;4.97;2.20;;;20.60;53.10;;;;;;5081987;28;20102;-69
2022/05/06 09:58:06;;;;;;;4.63;2.42;;;20.30;53.90;;;;;;5092313;28;20044;-69
2022/05/06 10:00:32;;;;;;;2.95;2.50;;;20.90;48.70;;;;;;5092365;28;20139;-69
2022/05/06 10:03:01;;;;;;;4.40;2.67;;;21.00;53.00;;;;;;5092679;28;20438;-69
2022/05/06 10:05:28;;;;;;;3.33;2.60;;;20.90;48.70;;;;;;5090591;28;20056;-70
2022/05/06 10:07:57;;;;;;;3.40;2.55;;;20.90;54.60;;;;;;5091243;28;20106;-70
2022/05/06 10:10:25;;;;;;;3.38;2.30;;;20.60;53.40;;;;;;5091316;28;20064;-70
2022/05/06 10:12:53;;;;;;;2.53;2.28;;;20.90;48.70;;;;;;5091305;28;20135;-70
2022/05/06 10:15:21;;;;;;;2.53;2.05;;;20.90;48.70;;;;;;5084118;28;20124;-70
2022/05/06 10:17:55;;;;;;;2.58;2.10;;;20.90;48.70;;;;;;5070992;28;20044;-70
2022/05/06 10:20:58;;;;;;;2.55;2.20;;;20.80;53.60;;;;;;5081513;28;20051;-69
2022/05/06 10:23:45;;;;;;;2.58;2.00;;;20.90;53.80;;;;;;5089138;28;20048;-70
2022/05/06 10:26:45;;;;;;;2.35;2.03;;;20.80;48.80;;;;;;5088015;28;20048;-71
2022/05/06 10:32:52;;;;;;;2.17;1.90;;;20.90;53.40;;;;;;5088204;28;20127;-69
2022/05/06 10:35:20;;;;;;;2.30;1.85;;;20.80;48.90;;;;;;5090117;28;20055;-69
2022/05/06 10:37:47;;;;;;;2.95;2.20;;;20.70;48.90;;;;;;5090948;28;20062;-70
2022/05/06 10:40:33;;;;;;;2.97;2.10;;;20.70;54.60;;;;;;5090610;28;20405;-70
2022/05/06 10:43:04;;;;;;;3.38;2.00;;;20.80;54.70;;;;;;5090798;28;20054;-70
2022/05/06 10:45:33;;;;;;;2.70;2.05;;;20.70;49.10;;;;;;5081507;28;20067;-70
2022/05/06 10:48:00;;;;;;;3.22;2.03;;;20.70;54.20;;;;;;5070751;28;20052;-69
2022/05/06 10:50:29;;;;;;;3.72;1.90;;;20.70;49.20;;;;;;5071613;28;20461;-70
2022/05/06 10:52:56;;;;;;;2.75;1.95;;;20.90;54.50;;;;;;5085137;28;20048;-70
2022/05/06 10:55:24;;;;;;;2.70;1.83;;;20.70;49.20;;;;;;5083837;28;20056;-69
2022/05/06 10:58:05;;;;;;;2.13;1.75;;;21.90;56.10;;;;;;5075473;28;20070;-69
2022/05/06 11:00:37;;;;;;;4.03;2.25;;;20.70;54.40;;;;;;5074853;28;20088;-69
2022/05/06 11:03:04;;;;;;;3.05;1.98;;;20.50;53.90;;;;;;5074613;28;20058;-69
2022/05/06 11:05:31;;;;;;;5.10;2.10;;;20.90;53.80;;;;;;5084026;28;20054;-69
2022/05/06 11:08:00;;;;;;;2.20;1.90;;;20.70;49.30;;;;;;5095875;28;20116;-69
2022/05/06 11:10:27;;;;;;;4.10;2.00;;;20.70;49.30;;;;;;5094583;28;20564;-70
2022/05/06 11:12:57;;;;;;;2.25;1.92;;;20.70;49.40;;;;;;5129030;27;20147;-69
2022/05/06 11:15:24;;;;;;;3.00;1.90;;;20.60;49.30;;;;;;5087111;28;20080;-70
2022/05/06 11:17:51;;;;;;;2.00;1.80;;;20.90;55.00;;;;;;5075304;28;20131;-69
2022/05/06 11:20:21;;;;;;;2.00;1.80;;;20.60;49.30;;;;;;5075137;28;20413;-70
2022/05/06 11:23:01;;;;;;;2.80;1.73;;;20.60;49.30;;;;;;5073994;28;20052;-70
2022/05/06 11:25:31;;;;;;;2.53;2.05;;;20.70;49.40;;;;;;5079753;28;20048;-70
2022/05/06 11:28:00;;;;;;;2.03;1.83;;;20.70;49.40;;;;;;5075502;28;20424;-70
2022/05/06 11:30:29;;;;;;;3.65;1.90;;;20.70;49.40;;;;;;5094409;28;20059;-69
2022/05/06 11:32:57;;;;;;;2.30;1.85;;;19.30;55.00;;;;;;5095151;28;20056;-70
2022/05/06 11:35:34;;;;;;;3.38;1.80;;;20.80;54.90;;;;;;5087052;28;20057;-70
2022/05/06 11:38:01;;;;;;;3.20;1.70;;;20.50;54.30;;;;;;5087245;28;20047;-69
2022/05/06 11:40:36;;;;;;;3.22;1.77;;;19.90;55.00;;;;;;5081394;28;20472;-69
2022/05/06 11:43:22;;;;;;;;;;;20.60;49.40;;;;;;5075679;28;20064;-70
2022/05/06 11:48:43;;;;;;;3.53;1.83;;;20.30;54.10;;;;;;5081709;28;20052;-70
2022/05/06 11:51:10;;;;;;;2.38;1.73;;;20.50;49.40;;;;;;5107640;28;20048;-70
2022/05/06 11:53:37;;;;;;;2.65;1.60;;;20.60;49.50;;;;;;5074410;28;20054;-70
2022/05/06 11:56:04;;;;;;;1.70;1.50;;;21.60;54.90;;;;;;5074883;28;20476;-70
2022/05/06 11:58:34;;;;;;;2.28;1.75;;;20.50;49.40;;;;;;5077046;28;20074;-70
2022/05/06 12:01:00;;;;;;;2.33;1.65;;;20.60;49.50;;;;;;5094847;28;20047;-71
2022/05/06 12:03:27;;;;;;;2.72;1.60;;;20.60;49.50;;;;;;5094462;28;20062;-70
2022/05/06 12:06:08;;;;;;;1.95;1.60;;;20.70;54.20;;;;;;5093786;28;20052;-70
2022/05/06 12:08:35;;;;;;;1.55;1.45;;;20.70;54.70;;;;;;5088543;28;20067;-70
2022/05/06 12:11:04;;;;;;;1.50;1.40;;;20.60;49.50;;;;;;5074278;28;20052;-71
2022/05/06 12:13:33;;;;;;;1.70;1.60;;;19.70;54.30;;;;;;5085456;28;20040;-70
2022/05/06 12:16:05;;;;;;;1.77;1.35;;;20.50;49.40;;;;;;5091439;28;20504;-70
2022/05/06 12:18:32;;;;;;;2.88;1.52;;;20.60;49.50;;;;;;5091034;28;20048;-71
2022/05/06 12:20:59;;;;;;;2.60;1.50;;;20.50;55.00;;;;;;5073892;28;20465;-71
2022/05/06 12:23:27;;;;;;;1.50;1.40;;;20.60;49.50;;;;;;5074337;28;20094;-70
2022/05/06 12:25:54;;;;;;;1.92;1.50;;;20.60;49.50;;;;;;5124446;27;20044;-70
2022/05/06 12:28:21;;;;;;;1.50;1.35;;;21.70;55.60;;;;;;5093527;28;20403;-71
2022/05/06 12:30:55;;;;;;;2.60;1.55;;;20.60;49.50;;;;;;5089866;28;20056;-70
2022/05/06 12:33:22;;;;;;;1.52;1.42;;;20.70;49.50;;;;;;5094022;28;20426;-71
2022/05/06 12:35:56;;;;;;;1.40;1.30;;;20.60;55.20;;;;;;5093853;28;20044;-70
2022/05/06 12:38:23;;;;;;;1.95;1.40;;;22.80;50.70;;;;;;5090561;28;20489;-71
2022/05/06 12:40:50;;;;;;;1.40;1.30;;;22.00;56.30;;;;;;5093693;28;20412;-70
2022/05/06 12:43:16;;;;;;;1.60;1.30;;;20.60;49.50;;;;;;5093822;28;20500;-70
2022/05/06 12:45:53;;;;;;;1.42;1.33;;;20.70;54.70;;;;;;5092840;28;20048;-70
2022/05/06 12:51:04;;;;;;;1.48;1.38;;;20.60;49.50;;;;;;5110926;27;20488;-69
2022/05/06 12:53:33;;;;;;;2.63;1.50;;;20.70;54.30;;;;;;5092366;28;20134;-69
2022/05/06 12:56:00;;;;;;;1.58;1.30;;;19.90;54.30;;;;;;5093897;28;20479;-69
2022/05/06 12:58:28;;;;;;;1.40;1.30;;;20.60;49.50;;;;;;5091999;28;20423;-69
2022/05/06 13:00:56;;;;;;;1.52;1.30;;;20.60;49.50;;;;;;5093559;28;20441;-68
2022/05/06 13:03:23;;;;;;;4.82;2.08;;;20.60;49.50;;;;;;5092409;28;20062;-69
2022/05/06 13:05:49;;;;;;;4.57;1.35;;;20.60;49.50;;;;;;5092590;28;20062;-70
2022/05/06 13:08:16;;;;;;;1.52;1.40;;;20.70;49.60;;;;;;5092037;28;20130;-70
2022/05/06 13:10:43;;;;;;;1.60;1.50;;;20.60;49.60;;;;;;5072054;28;20052;-70
2022/05/06 13:13:10;;;;;;;1.65;1.40;;;20.60;54.40;;;;;;5072129;28;20060;-70
2022/05/06 13:15:37;;;;;;;2.85;1.40;;;20.00;53.40;;;;;;5072021;28;20049;-70
2022/05/06 13:18:06;;;;;;;1.35;1.25;;;20.60;49.60;;;;;;5073787;28;20517;-71
2022/05/06 13:20:32;;;;;;;2.58;1.77;;;20.90;55.50;;;;;;5086555;28;20059;-70
2022/05/06 13:22:59;;;;;;;2.03;1.50;;;20.60;49.60;;;;;;5072158;28;20062;-69
2022/05/06 13:25:26;;;;;;;1.40;1.20;;;20.50;54.40;;;;;;5072792;28;20401;-72
2022/05/06 13:27:52;;;;;;;4.05;1.50;;;20.50;55.20;;;;;;5073096;28;20045;-71
2022/05/06 13:30:19;;;;;;;3.72;1.70;;;20.60;49.60;;;;;;5073749;28;20053;-70
2022/05/06 13:32:46;;;;;;;2.88;1.40;;;20.60;49.60;;;;;;5091110;28;20052;-71
2022/05/06 13:35:14;;;;;;;2.90;1.42;;;20.60;56.00;;;;;;5073433;28;20045;-71